createdAt,value
2022-08-15T00:01:18.657Z,28.44
2022-08-15T00:04:00.569Z,28.42
2022-08-15T00:06:50.147Z,28.40
2022-08-15T00:09:20.398Z,28.39
2022-08-15T00:11:52.442Z,28.38
2022-08-15T00:14:31.899Z,28.37
2022-08-15T00:17:04.349Z,28.38
2022-08-15T00:19:32.446Z,28.39
2022-08-15T00:22:05.379Z,28.39
2022-08-15T00:24:45.139Z,28.39
2022-08-15T00:27:18.019Z,28.41
2022-08-15T00:29:44.417Z,28.39
2022-08-15T00:33:02.870Z,28.39
2022-08-15T00:35:01.328Z,28.38
2022-08-15T00:37:28.084Z,28.37
2022-08-15T00:39:56.389Z,28.35
2022-08-15T00:42:29.304Z,28.35
2022-08-15T00:45:06.877Z,28.32
2022-08-15T00:47:38.837Z,28.31
2022-08-15T00:50:07.866Z,28.29
2022-08-15T00:52:54.371Z,28.24
2022-08-15T00:55:21.600Z,28.22
2022-08-15T00:58:00.771Z,28.17
2022-08-15T01:00:34.340Z,28.15
2022-08-15T01:03:14.239Z,28.12
2022-08-15T01:05:43.096Z,28.06
2022-08-15T01:08:17.875Z,28.01
2022-08-15T01:10:54.774Z,27.98
2022-08-15T01:14:03.385Z,27.94
2022-08-15T01:16:34.188Z,27.90
2022-08-15T01:19:12.605Z,27.88
2022-08-15T01:22:20.578Z,27.82
2022-08-15T01:25:26.218Z,27.82
2022-08-15T01:27:55.178Z,27.79
2022-08-15T01:30:39.243Z,27.76
2022-08-15T01:33:08.916Z,27.71
2022-08-15T01:35:41.870Z,27.69
2022-08-15T01:39:05.153Z,27.69
2022-08-15T01:41:42.499Z,27.68
2022-08-15T01:44:33.109Z,27.66
2022-08-15T01:47:31.026Z,27.67
2022-08-15T01:50:12.841Z,27.67
2022-08-15T01:53:18.046Z,27.66
2022-08-15T01:55:53.215Z,27.67
2022-08-15T01:58:22.306Z,27.65
2022-08-15T02:01:12.362Z,27.66
2022-08-15T02:03:49.661Z,27.66
2022-08-15T02:06:18.718Z,27.65
2022-08-15T02:08:45.787Z,27.66
2022-08-15T02:11:20.956Z,27.66
2022-08-15T02:13:51.327Z,27.67
2022-08-15T02:16:19.799Z,27.67
2022-08-15T02:18:47.378Z,27.68
2022-08-15T02:21:14.405Z,27.68
2022-08-15T02:23:41.540Z,27.69
2022-08-15T02:26:10.601Z,27.69
2022-08-15T02:28:41.222Z,27.71
2022-08-15T02:31:16.820Z,27.70
2022-08-15T02:33:51.746Z,27.72
2022-08-15T02:36:30.609Z,27.71
2022-08-15T02:39:00.311Z,27.72
2022-08-15T02:41:54.658Z,27.74
2022-08-15T02:44:23.379Z,27.74
2022-08-15T02:47:02.094Z,27.76
2022-08-15T02:49:44.774Z,27.75
2022-08-15T02:52:20.790Z,27.74
2022-08-15T02:54:59.365Z,27.74
2022-08-15T02:57:28.895Z,27.75
2022-08-15T02:59:55.454Z,27.73
2022-08-15T03:02:30.030Z,27.72
2022-08-15T03:04:59.865Z,27.70
2022-08-15T03:07:29.592Z,27.69
2022-08-15T03:09:57.272Z,27.67
2022-08-15T03:12:30.872Z,27.66
2022-08-15T03:15:01.459Z,27.64
2022-08-15T03:17:34.731Z,27.64
2022-08-15T03:20:03.481Z,27.61
2022-08-15T03:22:46.675Z,27.60
2022-08-15T03:25:18.420Z,27.58
2022-08-15T03:27:56.125Z,27.55
2022-08-15T03:30:29.555Z,27.51
2022-08-15T03:32:58.969Z,27.48
2022-08-15T03:35:29.774Z,27.45
2022-08-15T03:38:05.582Z,27.41
2022-08-15T03:40:33.305Z,27.40
2022-08-15T03:43:12.904Z,27.37
2022-08-15T03:45:44.678Z,27.32
2022-08-15T03:48:20.754Z,27.28
2022-08-15T03:50:57.526Z,27.24
2022-08-15T03:53:28.528Z,27.22
2022-08-15T03:55:56.163Z,27.18
2022-08-15T03:58:35.290Z,27.14
2022-08-15T04:01:06.262Z,27.09
2022-08-15T04:03:33.839Z,27.06
2022-08-15T04:06:06.511Z,27.03
2022-08-15T04:08:45.096Z,27.00
2022-08-15T04:11:35.085Z,26.97
2022-08-15T04:14:02.004Z,26.94
2022-08-15T04:17:03.217Z,26.89
2022-08-15T04:19:16.887Z,26.85
2022-08-15T04:21:50.650Z,26.82
2022-08-15T04:24:25.468Z,26.78
2022-08-15T04:26:53.395Z,26.77
2022-08-15T04:29:20.067Z,26.73
2022-08-15T04:31:49.127Z,26.67
2022-08-15T04:34:47.247Z,26.63
2022-08-15T04:37:12.255Z,26.59
2022-08-15T04:39:39.795Z,26.56
2022-08-15T04:42:07.967Z,26.53
2022-08-15T04:44:37.036Z,26.51
2022-08-15T04:47:05.416Z,26.48
2022-08-15T04:49:31.878Z,26.47
2022-08-15T04:52:07.060Z,26.46
2022-08-15T04:54:35.598Z,26.44
2022-08-15T04:57:02.831Z,26.43
2022-08-15T04:59:35.998Z,26.43
2022-08-15T05:02:50.031Z,26.42
2022-08-15T05:04:54.049Z,26.42
2022-08-15T05:07:20.727Z,26.43
2022-08-15T05:09:59.021Z,26.44
2022-08-15T05:12:33.563Z,26.44
2022-08-15T05:15:02.436Z,26.46
2022-08-15T05:17:56.616Z,26.47
2022-08-15T05:20:20.167Z,26.49
2022-08-15T05:23:01.981Z,26.50
2022-08-15T05:25:32.211Z,26.48
2022-08-15T05:27:59.441Z,26.49
2022-08-15T05:30:28.052Z,26.48
2022-08-15T05:33:13.034Z,26.49
2022-08-15T05:35:51.585Z,26.48
2022-08-15T05:38:35.512Z,26.51
2022-08-15T05:41:31.045Z,26.52
2022-08-15T05:44:37.990Z,26.56
2022-08-15T05:47:44.823Z,26.60
2022-08-15T05:50:31.922Z,26.65
2022-08-15T05:53:06.496Z,26.70
2022-08-15T05:56:04.533Z,26.77
2022-08-15T05:58:52.369Z,26.86
2022-08-15T06:01:32.635Z,26.94
2022-08-15T06:04:29.350Z,27.03
2022-08-15T06:07:00.170Z,27.12
2022-08-15T06:09:28.071Z,27.20
2022-08-15T06:12:24.920Z,27.30
2022-08-15T06:14:56.603Z,27.40
2022-08-15T06:17:29.797Z,27.47
2022-08-15T06:20:01.313Z,27.53
2022-08-15T06:22:43.169Z,27.63
2022-08-15T06:25:17.766Z,27.68
2022-08-15T06:27:59.626Z,27.76
2022-08-15T06:30:52.695Z,27.81
2022-08-15T06:34:06.039Z,27.88
2022-08-15T06:36:45.086Z,27.93
2022-08-15T06:39:17.491Z,27.98
2022-08-15T06:42:11.191Z,28.04
2022-08-15T06:44:38.584Z,28.09
2022-08-15T06:47:13.362Z,28.14
2022-08-15T06:49:46.174Z,28.17
2022-08-15T06:52:20.515Z,28.21
2022-08-15T06:54:52.123Z,28.27
2022-08-15T06:57:34.087Z,28.34
2022-08-15T07:00:36.835Z,28.40
2022-08-15T07:03:36.762Z,28.48
2022-08-15T07:06:04.508Z,28.54
2022-08-15T07:08:51.549Z,28.63
2022-08-15T07:11:24.472Z,28.69
2022-08-15T07:14:21.523Z,28.76
2022-08-15T07:17:06.552Z,28.84
2022-08-15T07:19:36.465Z,28.88
2022-08-15T07:22:06.250Z,28.95
2022-08-15T07:24:36.706Z,29.00
2022-08-15T07:27:15.266Z,29.07
2022-08-15T07:29:56.900Z,29.11
2022-08-15T07:32:42.537Z,29.17
2022-08-15T07:35:15.079Z,29.22
2022-08-15T07:37:52.316Z,29.28
2022-08-15T07:40:28.660Z,29.31
2022-08-15T07:42:58.974Z,29.36
2022-08-15T07:45:35.890Z,29.41
2022-08-15T07:48:08.364Z,29.44
2022-08-15T07:50:42.850Z,29.45
2022-08-15T07:53:20.291Z,29.49
2022-08-15T07:56:38.607Z,29.53
2022-08-15T07:59:24.287Z,29.57
2022-08-15T08:02:07.633Z,29.60
2022-08-15T08:04:37.440Z,29.62
2022-08-15T08:07:34.016Z,29.68
2022-08-15T08:10:25.012Z,29.74
2022-08-15T08:13:00.703Z,29.77
2022-08-15T08:16:08.334Z,29.78
2022-08-15T08:18:43.409Z,29.77
2022-08-15T08:21:16.521Z,29.76
2022-08-15T08:23:51.310Z,29.73
2022-08-15T08:26:41.631Z,29.70
2022-08-15T08:29:23.584Z,29.68
2022-08-15T08:32:21.718Z,29.63
2022-08-15T08:35:01.226Z,29.62
2022-08-15T08:37:54.049Z,29.59
2022-08-15T08:40:52.010Z,29.56
2022-08-15T08:43:47.587Z,29.55
2022-08-15T08:46:38.996Z,29.56
2022-08-15T08:50:34.692Z,29.57
2022-08-15T08:52:59.704Z,29.59
2022-08-15T08:55:45.431Z,29.61
2022-08-15T08:58:35.977Z,29.64
2022-08-15T09:01:07.227Z,29.68
2022-08-15T09:03:43.452Z,29.72
2022-08-15T09:06:26.683Z,29.76
2022-08-15T09:09:02.181Z,29.82
2022-08-15T09:11:37.475Z,29.87
2022-08-15T09:14:32.304Z,29.92
2022-08-15T09:17:29.911Z,30.01
2022-08-15T09:20:05.795Z,30.10
2022-08-15T09:22:32.730Z,30.19
2022-08-15T09:25:06.309Z,30.30
2022-08-15T09:27:56.656Z,30.42
2022-08-15T09:30:45.830Z,30.56
2022-08-15T09:33:14.279Z,30.74
2022-08-15T09:36:05.879Z,30.91
2022-08-15T09:38:50.711Z,31.07
2022-08-15T09:41:24.654Z,31.25
2022-08-15T09:44:36.471Z,31.46
2022-08-15T09:47:49.548Z,31.70
2022-08-15T09:50:42.113Z,31.89
2022-08-15T09:53:24.840Z,32.00
2022-08-15T09:55:53.991Z,32.07
2022-08-15T09:58:39.210Z,32.13
2022-08-15T10:01:13.472Z,32.18
2022-08-15T10:03:48.399Z,32.18
2022-08-15T10:06:48.087Z,32.18
2022-08-15T10:09:34.084Z,32.16
2022-08-15T10:12:05.652Z,32.13
2022-08-15T10:14:51.011Z,32.09
2022-08-15T10:17:38.587Z,32.04
2022-08-15T10:20:30.340Z,31.97
2022-08-15T10:23:01.179Z,31.93
2022-08-15T10:25:37.692Z,31.90
2022-08-15T10:28:37.661Z,31.86
2022-08-15T10:31:07.201Z,31.86
2022-08-15T10:33:35.375Z,31.84
2022-08-15T10:36:33.356Z,31.87
2022-08-15T10:39:26.659Z,31.88
2022-08-15T10:42:19.615Z,31.88
2022-08-15T10:45:03.834Z,31.86
2022-08-15T10:47:33.433Z,31.81
2022-08-15T10:50:23.963Z,31.77
2022-08-15T10:53:08.454Z,31.73
2022-08-15T10:55:57.673Z,31.69
2022-08-15T10:58:30.970Z,31.68
2022-08-15T11:01:17.413Z,31.67
2022-08-15T11:04:57.052Z,31.69
2022-08-15T11:06:46.516Z,31.73
2022-08-15T11:09:19.821Z,31.80
2022-08-15T11:12:10.033Z,31.88
2022-08-15T11:14:44.574Z,31.93
2022-08-15T11:17:18.893Z,32.01
2022-08-15T11:20:02.182Z,32.07
2022-08-15T11:22:47.429Z,32.15
2022-08-15T11:25:18.842Z,32.21
2022-08-15T11:27:59.463Z,32.26
2022-08-15T11:30:31.274Z,32.26
2022-08-15T11:33:26.519Z,32.22
2022-08-15T11:36:19.183Z,32.15
2022-08-15T11:39:15.905Z,32.05
2022-08-15T11:41:50.812Z,31.91
2022-08-15T11:44:24.592Z,31.74
2022-08-15T11:46:51.996Z,31.57
2022-08-15T11:49:30.960Z,31.41
2022-08-15T11:52:40.647Z,31.25
2022-08-15T11:55:23.672Z,31.04
2022-08-15T11:57:54.471Z,30.86
2022-08-15T12:00:43.135Z,30.67
2022-08-15T12:06:29.754Z,30.24
2022-08-15T12:09:41.915Z,30.04
2022-08-15T12:12:33.061Z,29.89
2022-08-15T12:13:11.902Z,30.45
2022-08-15T12:15:18.108Z,29.78
2022-08-15T12:18:32.450Z,29.69
2022-08-15T12:21:13.435Z,29.61
2022-08-15T12:23:47.353Z,29.57
2022-08-15T12:26:23.764Z,29.53
2022-08-15T12:29:03.745Z,29.51
2022-08-15T12:31:37.453Z,29.48
2022-08-15T12:34:32.338Z,29.48
2022-08-15T12:37:06.959Z,29.52
2022-08-15T12:39:56.944Z,29.54
2022-08-15T12:42:49.268Z,29.57
2022-08-15T12:45:17.576Z,29.58
2022-08-15T12:48:05.632Z,29.62
2022-08-15T12:50:32.607Z,29.67
2022-08-15T12:53:01.179Z,29.72
2022-08-15T12:55:35.684Z,29.80
2022-08-15T12:58:05.331Z,29.84
2022-08-15T13:00:36.107Z,29.88
2022-08-15T13:03:28.173Z,29.93
2022-08-15T13:06:35.053Z,29.96
2022-08-15T13:09:02.414Z,30.00
2022-08-15T13:11:30.340Z,30.02
2022-08-15T13:13:58.447Z,30.04
2022-08-15T13:17:06.249Z,30.06
2022-08-15T13:19:16.702Z,30.14
2022-08-15T13:22:31.057Z,30.20
2022-08-15T13:24:57.119Z,30.31
2022-08-15T13:27:24.398Z,30.42
2022-08-15T13:29:56.492Z,30.55
2022-08-15T13:32:24.840Z,30.69
2022-08-15T13:34:52.897Z,30.83
2022-08-15T13:37:59.314Z,30.96
2022-08-15T13:40:19.871Z,31.10
2022-08-15T13:42:47.996Z,31.22
2022-08-15T13:45:57.035Z,31.32
2022-08-15T13:48:16.000Z,31.41
2022-08-15T13:50:43.990Z,31.50
2022-08-15T13:53:11.986Z,31.56
2022-08-15T13:55:38.554Z,31.63
2022-08-15T13:58:20.224Z,31.71
2022-08-15T14:00:56.835Z,31.80
2022-08-15T14:03:33.230Z,31.87
2022-08-15T14:06:02.565Z,31.93
2022-08-15T14:09:14.082Z,31.98
2022-08-15T14:11:30.791Z,32.02
2022-08-15T14:13:59.887Z,32.05
2022-08-15T14:16:41.898Z,32.07
2022-08-15T14:19:27.570Z,32.12
2022-08-15T14:22:06.566Z,32.13
2022-08-15T14:24:54.043Z,32.14
2022-08-15T14:30:20.431Z,32.17
2022-08-15T14:32:51.923Z,32.18
2022-08-15T14:35:24.034Z,32.21
2022-08-15T14:37:53.165Z,32.21
2022-08-15T14:40:24.666Z,32.21
2022-08-15T14:42:58.292Z,32.21
2022-08-15T14:46:31.259Z,32.19
2022-08-15T14:48:31.971Z,32.18
2022-08-15T14:52:03.921Z,32.17
2022-08-15T14:53:52.751Z,32.15
2022-08-15T14:56:20.018Z,32.13
2022-08-15T14:58:50.042Z,32.09
2022-08-15T15:01:22.659Z,32.07
2022-08-15T15:04:00.180Z,32.05
2022-08-15T15:06:34.601Z,32.03
2022-08-15T15:09:05.185Z,32.02
2022-08-15T15:11:33.633Z,32.02
2022-08-15T15:14:02.118Z,32.02
2022-08-15T15:16:40.862Z,32.04
2022-08-15T15:19:10.302Z,32.08
2022-08-15T15:21:37.498Z,32.12
2022-08-15T15:24:06.092Z,32.11
2022-08-15T15:26:54.993Z,32.12
2022-08-15T15:29:24.450Z,32.12
2022-08-15T15:31:55.097Z,32.13
2022-08-15T15:34:30.004Z,32.13
2022-08-15T15:37:03.235Z,32.13
2022-08-15T15:39:46.668Z,32.12
2022-08-15T15:42:17.354Z,32.12
2022-08-15T15:44:45.678Z,32.09
2022-08-15T15:47:12.504Z,32.08
2022-08-15T15:49:45.185Z,32.07
2022-08-15T15:52:19.213Z,32.06
2022-08-15T15:54:53.552Z,32.03
2022-08-15T15:57:25.749Z,32.03
2022-08-15T16:00:27.238Z,32.02
2022-08-15T16:02:57.918Z,32.01
2022-08-15T16:06:02.381Z,32.00
2022-08-15T16:08:32.866Z,31.99
2022-08-15T16:11:25.353Z,31.99
2022-08-15T16:14:05.220Z,31.99
2022-08-15T16:16:45.974Z,31.99
2022-08-15T16:19:19.031Z,31.98
2022-08-15T16:21:59.779Z,31.95
2022-08-15T16:24:39.665Z,31.92
2022-08-15T16:27:15.236Z,31.87
2022-08-15T16:29:56.923Z,31.83
2022-08-15T16:32:40.524Z,31.76
2022-08-15T16:35:46.908Z,31.64
2022-08-15T16:39:03.564Z,31.52
2022-08-15T16:41:30.856Z,31.39
2022-08-15T16:44:13.856Z,31.28
2022-08-15T16:46:56.741Z,31.17
2022-08-15T16:49:42.946Z,31.06
2022-08-15T16:52:16.497Z,30.97
2022-08-15T16:55:08.877Z,30.90
2022-08-15T16:58:01.761Z,30.82
2022-08-15T17:01:04.121Z,30.76
2022-08-15T17:04:20.820Z,30.68
2022-08-15T17:07:15.606Z,30.61
2022-08-15T17:09:47.084Z,30.54
2022-08-15T17:12:54.362Z,30.47
2022-08-15T17:16:15.367Z,30.42
2022-08-15T17:18:58.323Z,30.36
2022-08-15T17:21:38.902Z,30.32
2022-08-15T17:24:42.762Z,30.28
2022-08-15T17:28:01.103Z,30.22
2022-08-15T17:30:57.202Z,30.14
2022-08-15T17:33:43.812Z,30.09
2022-08-15T17:36:15.692Z,30.03
2022-08-15T17:38:51.843Z,29.99
2022-08-15T17:41:23.776Z,29.93
2022-08-15T17:43:57.148Z,29.89
2022-08-15T17:46:31.864Z,29.85
2022-08-15T17:49:09.521Z,29.79
2022-08-15T17:51:49.443Z,29.74
2022-08-15T17:54:51.667Z,29.69
2022-08-15T17:58:00.469Z,29.64
2022-08-15T18:00:32.407Z,29.60
2022-08-15T18:03:04.904Z,29.55
2022-08-15T18:05:35.447Z,29.48
2022-08-15T18:08:11.762Z,29.46
2022-08-15T18:10:46.876Z,29.41
2022-08-15T18:13:14.687Z,29.37
2022-08-15T18:16:19.504Z,29.33
2022-08-15T18:18:47.566Z,29.28
2022-08-15T18:21:27.954Z,29.25
2022-08-15T18:23:55.307Z,29.21
2022-08-15T18:26:52.225Z,29.19
2022-08-15T18:29:21.823Z,29.14
2022-08-15T18:32:21.431Z,29.11
2022-08-15T18:34:57.139Z,29.08
2022-08-15T18:37:33.884Z,29.04
2022-08-15T18:40:39.080Z,29.00
2022-08-15T18:43:10.290Z,28.99
2022-08-15T18:45:43.947Z,28.96
2022-08-15T18:48:34.377Z,28.92
2022-08-15T18:51:16.209Z,28.87
2022-08-15T18:53:57.005Z,28.81
2022-08-15T18:56:32.003Z,28.78
2022-08-15T18:59:02.968Z,28.74
2022-08-15T19:01:38.457Z,28.70
2022-08-15T19:04:49.439Z,28.67
2022-08-15T19:07:20.871Z,28.66
2022-08-15T19:09:54.663Z,28.63
2022-08-15T19:12:33.359Z,28.59
2022-08-15T19:15:05.997Z,28.55
2022-08-15T19:17:39.976Z,28.52
2022-08-15T19:20:27.640Z,28.48
2022-08-15T19:22:58.898Z,28.44
2022-08-15T19:25:35.519Z,28.41
2022-08-15T19:28:39.900Z,28.36
2022-08-15T19:31:19.928Z,28.32
2022-08-15T19:34:06.879Z,28.27
2022-08-15T19:36:56.294Z,28.23
2022-08-15T19:39:47.155Z,28.19
2022-08-15T19:42:57.725Z,28.15
2022-08-15T19:45:47.859Z,28.10
2022-08-15T19:48:22.483Z,28.07
2022-08-15T19:51:21.794Z,28.01
2022-08-15T19:55:22.658Z,27.98
2022-08-15T19:57:53.948Z,27.94
2022-08-15T20:00:25.368Z,27.90
2022-08-15T20:03:15.725Z,27.85
2022-08-15T20:06:08.170Z,27.83
2022-08-15T20:08:50.641Z,27.79
2022-08-15T20:11:37.425Z,27.76
2022-08-15T20:14:46.268Z,27.76
2022-08-15T20:17:29.170Z,27.75
2022-08-15T20:20:47.301Z,27.70
2022-08-15T20:23:41.172Z,27.66
2022-08-15T20:26:24.043Z,27.62
2022-08-15T20:29:28.207Z,27.58
2022-08-15T20:32:22.759Z,27.55
2022-08-15T20:35:17.055Z,27.53
2022-08-15T20:37:55.379Z,27.52
2022-08-15T20:40:32.239Z,27.51
2022-08-15T20:43:31.656Z,27.51
2022-08-15T20:46:28.668Z,27.49
2022-08-15T20:49:06.235Z,27.49
2022-08-15T20:52:36.738Z,27.48
2022-08-15T20:54:34.910Z,27.47
2022-08-15T20:57:08.097Z,27.45
2022-08-15T20:59:56.356Z,27.44
2022-08-15T21:02:42.065Z,27.42
2022-08-15T21:05:41.424Z,27.41
2022-08-15T21:08:30.779Z,27.40
2022-08-15T21:11:11.350Z,27.37
2022-08-15T21:13:56.724Z,27.34
2022-08-15T21:17:10.057Z,27.31
2022-08-15T21:20:18.979Z,27.30
2022-08-15T21:22:53.737Z,27.26
2022-08-15T21:25:41.995Z,27.23
2022-08-15T21:28:09.818Z,27.17
2022-08-15T21:31:01.230Z,27.13
2022-08-15T21:33:40.904Z,27.08
2022-08-15T21:36:35.099Z,27.03
2022-08-15T21:39:07.506Z,26.98
2022-08-15T21:41:56.472Z,26.92
2022-08-15T21:44:31.324Z,26.88
2022-08-15T21:46:57.737Z,26.83
2022-08-15T21:49:38.137Z,26.79
2022-08-15T21:52:15.689Z,26.75
2022-08-15T21:54:50.694Z,26.71
2022-08-15T21:57:40.599Z,26.66
2022-08-15T22:00:19.176Z,26.60
2022-08-15T22:03:00.726Z,26.53
2022-08-15T22:05:35.623Z,26.48
2022-08-15T22:08:16.708Z,26.42
2022-08-15T22:10:51.061Z,26.34
2022-08-15T22:13:18.734Z,26.29
2022-08-15T22:15:46.641Z,26.23
2022-08-15T22:18:27.562Z,26.20
2022-08-15T22:21:00.480Z,26.16
2022-08-15T22:23:33.616Z,26.13
2022-08-15T22:26:03.520Z,26.10
2022-08-15T22:29:00.668Z,26.10
2022-08-15T22:31:48.247Z,26.06
2022-08-15T22:34:18.243Z,26.07
2022-08-15T22:36:47.819Z,26.06
2022-08-15T22:39:16.594Z,26.05
2022-08-15T22:41:52.892Z,26.04
2022-08-15T22:44:29.330Z,26.05
2022-08-15T22:46:59.382Z,26.04
2022-08-15T22:49:26.653Z,26.04
2022-08-15T22:51:57.398Z,26.03
2022-08-15T22:54:26.337Z,26.01
2022-08-15T22:56:58.831Z,26.00
2022-08-15T22:59:30.077Z,25.99
2022-08-15T23:02:02.351Z,25.96
2022-08-15T23:04:40.221Z,25.95
2022-08-15T23:07:21.420Z,25.93
2022-08-15T23:09:55.796Z,25.90
2022-08-15T23:12:31.956Z,25.88
2022-08-15T23:15:07.341Z,25.87
2022-08-15T23:17:44.362Z,25.86
2022-08-15T23:20:39.718Z,25.84
2022-08-15T23:23:10.756Z,25.82
2022-08-15T23:25:49.177Z,25.80
2022-08-15T23:28:32.263Z,25.78
2022-08-15T23:31:05.177Z,25.75
2022-08-15T23:33:57.481Z,25.71
2022-08-15T23:36:59.494Z,25.69
2022-08-15T23:39:27.959Z,25.67
2022-08-15T23:42:28.151Z,25.65
2022-08-15T23:44:58.921Z,25.60
2022-08-15T23:47:27.549Z,25.57
2022-08-15T23:49:55.844Z,25.54
2022-08-15T23:52:25.088Z,25.51
2022-08-15T23:54:56.643Z,25.49
2022-08-15T23:57:23.261Z,25.46
